Time;durP1;ratioP1;P1;durP2;ratioP2;P2;SDS_P1;SDS_P2;PMS_P1;PMS_P2;Temp;Humidity;BMP_temperature;BMP_pressure;BME280_temperature;BME280_humidity;BME280_pressure;Samples;Min_cycle;Max_cycle;Signal;HPM_P1;HPM_P2
2023/01/23 00:01:45;;;;;;;42.20;25.73;;;1.30;99.90;;;;;;4994049;28;20315;-68
2023/01/23 00:04:12;;;;;;;38.40;24.33;;;1.30;99.90;;;;;;5009196;28;20211;-68
2023/01/23 00:06:39;;;;;;;38.37;24.27;;;1.30;99.90;;;;;;4994491;28;20206;-68
2023/01/23 00:09:05;;;;;;;39.97;25.93;;;1.30;99.90;;;;;;4994421;28;20513;-68
2023/01/23 00:11:32;;;;;;;41.07;24.70;;;1.30;99.90;;;;;;4992754;28;20269;-68
2023/01/23 00:13:59;;;;;;;39.73;24.37;;;1.30;99.90;;;;;;5009380;28;20664;-68
2023/01/23 00:16:28;;;;;;;37.50;24.20;;;1.30;99.90;;;;;;4992966;28;20192;-68
2023/01/23 00:18:54;;;;;;;44.13;27.13;;;1.30;99.90;;;;;;4993018;28;20185;-68
2023/01/23 00:21:23;;;;;;;39.93;25.67;;;1.30;99.90;;;;;;5009385;28;20188;-68
2023/01/23 00:23:51;;;;;;;36.43;23.70;;;1.30;99.90;;;;;;5009382;28;20197;-70
2023/01/23 00:26:21;;;;;;;39.90;25.53;;;1.30;99.90;;;;;;4993804;28;20279;-68
2023/01/23 00:28:47;;;;;;;39.23;24.63;;;1.30;99.90;;;;;;5008943;28;20267;-69
2023/01/23 00:31:17;;;;;;;39.67;25.17;;;1.20;99.90;;;;;;4993883;28;20165;-68
2023/01/23 00:33:43;;;;;;;40.47;24.00;;;1.30;99.90;;;;;;5008909;28;20173;-68
2023/01/23 00:36:11;;;;;;;41.90;25.17;;;1.30;99.90;;;;;;4993832;28;20246;-68
2023/01/23 00:38:37;;;;;;;39.00;23.97;;;1.30;99.90;;;;;;4992705;28;20191;-68
2023/01/23 00:41:03;;;;;;;38.10;24.30;;;1.30;99.90;;;;;;4993674;28;20551;-69
2023/01/23 00:43:29;;;;;;;40.23;24.57;;;1.30;99.90;;;;;;4992526;28;20190;-68
2023/01/23 00:45:55;;;;;;;42.50;25.80;;;1.30;99.90;;;;;;5008590;28;20673;-68
2023/01/23 00:48:21;;;;;;;36.73;24.47;;;1.30;99.90;;;;;;4994061;28;20205;-68
2023/01/23 00:50:47;;;;;;;38.90;23.43;;;1.30;99.90;;;;;;4993997;28;20177;-68
2023/01/23 00:53:13;;;;;;;36.73;24.30;;;1.30;99.90;;;;;;5008941;28;20188;-68
2023/01/23 00:55:39;;;;;;;38.50;24.83;;;1.20;99.90;;;;;;5008623;28;20201;-68
2023/01/23 00:58:06;;;;;;;38.07;24.73;;;1.30;99.90;;;;;;4992495;28;20703;-68
2023/01/23 01:00:31;;;;;;;36.80;24.03;;;1.30;99.90;;;;;;5008805;28;20665;-68
2023/01/23 01:02:57;;;;;;;34.53;23.67;;;1.30;99.90;;;;;;4994285;28;20177;-68
2023/01/23 01:05:23;;;;;;;35.63;22.37;;;1.30;99.90;;;;;;4992302;28;20204;-68
2023/01/23 01:07:49;;;;;;;38.57;24.80;;;1.30;99.90;;;;;;4992776;28;20583;-68
2023/01/23 01:10:15;;;;;;;35.07;23.37;;;1.30;99.90;;;;;;4995717;28;20535;-68
2023/01/23 01:12:41;;;;;;;38.43;23.30;;;1.30;99.90;;;;;;4996919;28;20179;-68
2023/01/23 01:15:07;;;;;;;36.03;23.97;;;1.30;99.90;;;;;;4996920;28;20200;-68
2023/01/23 01:17:34;;;;;;;38.00;22.73;;;1.30;99.90;;;;;;4995763;28;20184;-68
2023/01/23 01:20:00;;;;;;;39.93;24.90;;;1.30;99.90;;;;;;4995750;28;20177;-68
2023/01/23 01:22:26;;;;;;;34.97;22.37;;;1.30;99.90;;;;;;4996856;28;20534;-68
2023/01/23 01:24:51;;;;;;;37.10;23.77;;;1.30;99.90;;;;;;4996888;28;20201;-69
2023/01/23 01:27:17;;;;;;;35.40;23.90;;;1.30;99.90;;;;;;4996569;28;20228;-68
2023/01/23 01:29:43;;;;;;;34.23;22.37;;;1.30;99.90;;;;;;5011918;28;20181;-68
2023/01/23 01:32:09;;;;;;;35.30;23.20;;;1.20;99.90;;;;;;4996713;28;20315;-68
2023/01/23 01:34:34;;;;;;;38.17;23.90;;;1.20;99.90;;;;;;4996766;28;20204;-68
2023/01/23 01:37:00;;;;;;;34.43;24.33;;;1.20;99.90;;;;;;4996720;28;20180;-68
2023/01/23 01:39:26;;;;;;;38.23;24.43;;;1.20;99.90;;;;;;4997164;28;20538;-68
2023/01/23 01:41:52;;;;;;;45.23;23.50;;;1.20;99.90;;;;;;4996477;28;20180;-68
2023/01/23 01:44:19;;;;;;;36.80;24.00;;;1.20;99.90;;;;;;4995045;28;20620;-68
2023/01/23 01:46:47;;;;;;;36.93;24.17;;;1.20;99.90;;;;;;5011496;28;20228;-68
2023/01/23 01:49:24;;;;;;;35.43;23.30;;;1.20;99.90;;;;;;4996579;28;20161;-68
2023/01/23 01:52:05;;;;;;;36.90;24.27;;;1.20;99.90;;;;;;4995363;28;20195;-68
2023/01/23 01:54:36;;;;;;;35.80;22.87;;;1.20;99.90;;;;;;4996899;28;21129;-68
2023/01/23 01:57:25;;;;;;;33.60;22.50;;;1.20;99.90;;;;;;4996686;28;20212;-68
2023/01/23 02:00:17;;;;;;;34.17;23.50;;;1.20;99.90;;;;;;4997749;28;20192;-68
2023/01/23 02:02:45;;;;;;;35.77;22.70;;;1.20;99.90;;;;;;4992508;28;20192;-68
2023/01/23 02:05:36;;;;;;;36.17;23.03;;;1.20;99.90;;;;;;4996379;28;20196;-68
2023/01/23 02:08:35;;;;;;;36.27;22.70;;;1.10;99.90;;;;;;4996713;28;20668;-68
2023/01/23 02:11:02;;;;;;;32.83;22.77;;;1.10;99.90;;;;;;4995903;28;20164;-68
2023/01/23 02:13:37;;;;;;;33.87;22.23;;;1.20;99.90;;;;;;4994734;28;20181;-68
2023/01/23 02:16:16;;;;;;;33.17;21.60;;;1.20;99.90;;;;;;4995942;28;20652;-68
2023/01/23 02:18:52;;;;;;;31.60;22.13;;;1.20;99.90;;;;;;5010903;28;20172;-68
2023/01/23 02:21:21;;;;;;;31.77;21.70;;;1.20;99.90;;;;;;4994676;28;20214;-68
2023/01/23 02:24:13;;;;;;;31.73;22.27;;;1.20;99.90;;;;;;4995813;28;20232;-68
2023/01/23 02:26:44;;;;;;;32.80;21.20;;;1.20;99.90;;;;;;4995896;28;20189;-68
2023/01/23 02:29:11;;;;;;;30.77;21.10;;;1.20;99.90;;;;;;5010794;28;20173;-68
2023/01/23 02:31:37;;;;;;;29.70;20.93;;;1.20;99.90;;;;;;5010604;28;20180;-68
2023/01/23 02:34:04;;;;;;;32.37;21.13;;;1.20;99.90;;;;;;4994316;28;20607;-67
2023/01/23 02:36:33;;;;;;;34.43;21.53;;;1.30;99.90;;;;;;4995847;28;20180;-67
2023/01/23 02:39:09;;;;;;;32.50;22.30;;;1.20;99.90;;;;;;4995621;28;20547;-67
2023/01/23 02:41:38;;;;;;;29.87;20.97;;;1.20;99.90;;;;;;4995417;28;20191;-67
2023/01/23 02:44:20;;;;;;;30.93;20.93;;;1.20;99.90;;;;;;4995225;28;20272;-67
2023/01/23 02:46:45;;;;;;;31.53;21.33;;;1.30;99.90;;;;;;5010425;28;20578;-67
2023/01/23 02:49:11;;;;;;;32.40;22.17;;;1.30;99.90;;;;;;4995429;28;20184;-67
2023/01/23 02:51:37;;;;;;;34.70;22.20;;;1.30;99.90;;;;;;4995311;28;20176;-67
2023/01/23 02:54:03;;;;;;;34.83;22.17;;;1.30;99.90;;;;;;4993826;28;20251;-67
2023/01/23 02:56:28;;;;;;;35.97;22.07;;;1.30;99.90;;;;;;4995148;28;20173;-67
2023/01/23 03:01:38;;;;;;;35.90;22.97;;;1.30;99.90;;;;;;4995891;28;20164;-67
2023/01/23 03:04:05;;;;;;;36.03;21.83;;;1.30;99.90;;;;;;4993778;28;20204;-67
2023/01/23 03:06:36;;;;;;;36.77;23.63;;;1.30;99.90;;;;;;4995697;28;20660;-67
2023/01/23 03:09:07;;;;;;;35.57;23.13;;;1.30;99.90;;;;;;5010181;28;20200;-67
2023/01/23 03:11:33;;;;;;;40.13;23.43;;;1.30;99.90;;;;;;4995086;28;20652;-67
2023/01/23 03:14:00;;;;;;;37.40;23.80;;;1.30;99.90;;;;;;5009874;28;20196;-69
2023/01/23 03:16:26;;;;;;;34.83;23.17;;;1.30;99.90;;;;;;5009828;28;20184;-67
2023/01/23 03:18:51;;;;;;;37.40;22.37;;;1.30;99.90;;;;;;4995075;28;20184;-67
2023/01/23 03:21:17;;;;;;;39.30;23.47;;;1.30;99.90;;;;;;4994904;28;20176;-67
2023/01/23 03:23:45;;;;;;;34.20;23.53;;;1.30;99.90;;;;;;4994641;28;20184;-67
2023/01/23 03:26:12;;;;;;;36.30;22.90;;;1.30;99.90;;;;;;4993313;28;20433;-67
2023/01/23 03:31:21;;;;;;;37.20;21.43;;;1.30;99.90;;;;;;4994278;28;20615;-67
2023/01/23 03:33:47;;;;;;;39.37;23.47;;;1.30;99.90;;;;;;4995183;28;20196;-67
2023/01/23 03:36:13;;;;;;;40.43;24.63;;;1.30;99.90;;;;;;4994674;28;20180;-67
2023/01/23 03:41:23;;;;;;;37.97;24.67;;;1.30;99.90;;;;;;4994872;28;20539;-67
2023/01/23 03:41:25;;;;;;;38.60;23.07;;;1.30;99.90;;;;;;4994238;28;20171;-68
2023/01/23 03:43:51;;;;;;;38.27;23.07;;;1.30;99.90;;;;;;4994389;28;20201;-67
2023/01/23 03:46:17;;;;;;;35.57;23.87;;;1.30;99.90;;;;;;4994063;28;20633;-67
2023/01/23 03:48:42;;;;;;;35.57;22.87;;;1.30;99.90;;;;;;4994398;28;20172;-67
2023/01/23 03:51:08;;;;;;;34.17;22.23;;;1.30;99.90;;;;;;4994455;28;20176;-67
2023/01/23 03:53:34;;;;;;;36.50;23.20;;;1.30;99.90;;;;;;4994321;28;20173;-67
2023/01/23 03:56:00;;;;;;;33.73;22.13;;;1.30;99.90;;;;;;4994299;28;20653;-67
2023/01/23 03:58:26;;;;;;;34.53;21.63;;;1.30;99.90;;;;;;5009346;28;20180;-67
2023/01/23 04:00:52;;;;;;;36.60;22.97;;;1.30;99.90;;;;;;5009253;28;20186;-67
2023/01/23 04:03:18;;;;;;;33.83;22.20;;;1.30;99.90;;;;;;4994086;28;20251;-67
2023/01/23 04:05:44;;;;;;;40.33;23.43;;;1.30;99.90;;;;;;4994044;28;20192;-67
2023/01/23 04:08:09;;;;;;;32.87;22.03;;;1.30;99.90;;;;;;4994218;28;20710;-67
2023/01/23 04:10:35;;;;;;;35.67;22.93;;;1.30;99.90;;;;;;4992838;28;20173;-67
2023/01/23 04:13:02;;;;;;;35.70;22.27;;;1.30;99.90;;;;;;4994002;28;20242;-67
2023/01/23 04:15:27;;;;;;;41.47;23.70;;;1.30;99.90;;;;;;4992615;28;20288;-67
2023/01/23 04:17:53;;;;;;;38.07;23.67;;;1.30;99.90;;;;;;4994597;28;20208;-67
2023/01/23 04:20:19;;;;;;;37.70;23.50;;;1.30;99.90;;;;;;4994024;28;20210;-66
2023/01/23 04:22:45;;;;;;;34.00;22.33;;;1.30;99.90;;;;;;4994484;28;20192;-67
2023/01/23 04:25:10;;;;;;;33.70;22.87;;;1.30;99.90;;;;;;4993965;28;20216;-67
2023/01/23 04:27:36;;;;;;;30.27;22.30;;;1.30;99.90;;;;;;4993897;28;20204;-66
2023/01/23 04:30:02;;;;;;;34.07;23.43;;;1.30;99.90;;;;;;4993827;28;20226;-67
2023/01/23 04:32:28;;;;;;;34.93;23.40;;;1.30;99.90;;;;;;4994039;28;20169;-67
2023/01/23 04:34:54;;;;;;;36.43;22.80;;;1.30;99.90;;;;;;4994088;28;20206;-67
2023/01/23 04:37:19;;;;;;;38.23;23.30;;;1.30;99.90;;;;;;4994348;28;20180;-67
2023/01/23 04:39:45;;;;;;;41.27;25.70;;;1.30;99.90;;;;;;4993873;28;20177;-67
2023/01/23 04:42:11;;;;;;;37.50;23.80;;;1.30;99.90;;;;;;4994992;28;20172;-67
2023/01/23 04:44:36;;;;;;;37.10;22.63;;;1.30;99.90;;;;;;4997445;28;20624;-67
2023/01/23 04:47:02;;;;;;;35.23;23.17;;;1.30;99.90;;;;;;4997452;28;20695;-67
2023/01/23 04:49:28;;;;;;;39.43;23.50;;;1.30;99.90;;;;;;4997406;28;20227;-67
2023/01/23 04:51:54;;;;;;;35.70;23.73;;;1.30;99.90;;;;;;4997651;28;20180;-67
2023/01/23 04:54:21;;;;;;;36.70;21.93;;;1.30;99.90;;;;;;4997323;28;20196;-67
2023/01/23 04:56:47;;;;;;;32.83;22.10;;;1.30;99.90;;;;;;4997590;28;20179;-67
2023/01/23 04:59:14;;;;;;;31.53;22.10;;;1.30;99.90;;;;;;4997393;28;20172;-67
2023/01/23 05:01:40;;;;;;;36.83;22.83;;;1.30;99.90;;;;;;4997320;28;20177;-67
2023/01/23 05:04:06;;;;;;;35.63;22.30;;;1.30;99.90;;;;;;4997244;28;20202;-67
2023/01/23 05:06:32;;;;;;;36.90;21.97;;;1.30;99.90;;;;;;5012186;28;20347;-67
2023/01/23 05:08:58;;;;;;;34.13;23.10;;;1.30;99.90;;;;;;4997761;28;20244;-66
2023/01/23 05:11:24;;;;;;;32.07;21.53;;;1.30;99.90;;;;;;5012002;28;20232;-67
2023/01/23 05:13:49;;;;;;;36.40;22.43;;;1.30;99.90;;;;;;4997061;28;20199;-67
2023/01/23 05:16:15;;;;;;;33.77;21.30;;;1.40;99.90;;;;;;4997172;28;20263;-67
2023/01/23 05:18:41;;;;;;;32.33;20.30;;;1.40;99.90;;;;;;4995712;28;20180;-67
2023/01/23 05:21:07;;;;;;;37.87;22.20;;;1.30;99.90;;;;;;4997424;28;20172;-67
2023/01/23 05:23:33;;;;;;;33.57;21.77;;;1.30;99.90;;;;;;4996783;28;20641;-67
2023/01/23 05:25:58;;;;;;;31.67;20.37;;;1.30;99.90;;;;;;5011846;28;20212;-67
2023/01/23 05:28:24;;;;;;;33.37;21.33;;;1.30;99.90;;;;;;4996820;28;20172;-67
2023/01/23 05:30:50;;;;;;;31.33;21.30;;;1.30;99.90;;;;;;4996688;28;20200;-66
2023/01/23 05:33:16;;;;;;;33.90;21.47;;;1.30;99.90;;;;;;4995473;28;20205;-66
2023/01/23 05:35:43;;;;;;;34.67;21.77;;;1.30;99.90;;;;;;4997146;28;20188;-66
2023/01/23 05:38:11;;;;;;;34.07;21.97;;;1.30;99.90;;;;;;4997088;28;20163;-67
2023/01/23 05:40:36;;;;;;;31.60;20.83;;;1.30;99.90;;;;;;4997055;28;20168;-67
2023/01/23 05:43:02;;;;;;;34.03;21.73;;;1.30;99.90;;;;;;4996453;28;20169;-69
2023/01/23 05:45:28;;;;;;;37.83;22.90;;;1.30;99.90;;;;;;4996420;28;20212;-69
2023/01/23 05:47:55;;;;;;;38.33;22.23;;;1.40;99.90;;;;;;5011480;28;20259;-68
2023/01/23 05:50:23;;;;;;;39.90;23.13;;;1.40;99.90;;;;;;5011521;28;20264;-67
2023/01/23 05:52:48;;;;;;;36.33;22.43;;;1.40;99.90;;;;;;4996368;28;20680;-67
2023/01/23 05:55:14;;;;;;;35.87;22.27;;;1.30;99.90;;;;;;4996602;28;20220;-67
2023/01/23 05:57:41;;;;;;;36.10;21.73;;;1.30;99.90;;;;;;4996234;28;20252;-67
2023/01/23 06:00:10;;;;;;;34.83;22.33;;;1.30;99.90;;;;;;4996303;28;20195;-67
2023/01/23 06:02:36;;;;;;;34.93;22.63;;;1.30;99.90;;;;;;4996123;28;20259;-67
2023/01/23 06:05:01;;;;;;;33.17;21.07;;;1.30;99.90;;;;;;4997150;28;20795;-67
2023/01/23 06:07:27;;;;;;;37.93;22.53;;;1.30;99.90;;;;;;5010979;28;20203;-67
2023/01/23 06:09:53;;;;;;;29.63;20.97;;;1.30;99.90;;;;;;4995934;28;20227;-67
2023/01/23 06:12:19;;;;;;;35.80;21.80;;;1.30;99.90;;;;;;4995735;28;20184;-67
2023/01/23 06:14:46;;;;;;;37.07;22.27;;;1.30;99.90;;;;;;4995901;28;20207;-67
2023/01/23 06:17:12;;;;;;;31.10;21.77;;;1.30;99.90;;;;;;4996049;28;20195;-69
2023/01/23 06:19:38;;;;;;;32.43;21.00;;;1.30;99.90;;;;;;4996036;28;20173;-67
2023/01/23 06:22:04;;;;;;;37.33;22.53;;;1.30;99.90;;;;;;4996241;28;20586;-67
2023/01/23 06:24:30;;;;;;;35.23;22.17;;;1.30;99.90;;;;;;4995619;28;20619;-67
2023/01/23 06:26:55;;;;;;;36.17;21.73;;;1.30;99.90;;;;;;4995461;28;20242;-66
2023/01/23 06:29:21;;;;;;;35.33;22.17;;;1.30;99.90;;;;;;4996245;28;20164;-66
2023/01/23 06:31:47;;;;;;;36.73;22.50;;;1.30;99.90;;;;;;5010526;28;20180;-67
2023/01/23 06:34:14;;;;;;;36.53;23.63;;;1.30;99.90;;;;;;4995416;28;20193;-67
2023/01/23 06:36:40;;;;;;;37.93;22.67;;;1.40;99.90;;;;;;4995746;28;20249;-67
2023/01/23 06:39:07;;;;;;;37.90;21.50;;;1.30;99.90;;;;;;5010563;28;20180;-67
2023/01/23 06:41:33;;;;;;;37.53;22.00;;;1.30;99.90;;;;;;5010345;28;20681;-67
2023/01/23 06:43:58;;;;;;;37.70;22.40;;;1.30;99.90;;;;;;4995953;28;20201;-65
2023/01/23 06:46:24;;;;;;;36.57;23.37;;;1.40;99.90;;;;;;4993695;28;20290;-64
2023/01/23 06:48:51;;;;;;;37.63;22.57;;;1.40;99.90;;;;;;4995177;28;20172;-65
2023/01/23 06:51:17;;;;;;;37.67;23.47;;;1.40;99.90;;;;;;4995463;28;20239;-64
2023/01/23 06:53:43;;;;;;;36.00;21.87;;;1.40;99.90;;;;;;4993697;28;20529;-64
2023/01/23 06:56:09;;;;;;;36.23;23.40;;;1.30;99.90;;;;;;4995043;28;20184;-66
2023/01/23 06:58:37;;;;;;;38.07;24.73;;;1.40;99.90;;;;;;4993771;28;20207;-66
2023/01/23 07:01:17;;;;;;;40.20;23.73;;;1.30;99.90;;;;;;4994967;28;20645;-66
2023/01/23 07:03:46;;;;;;;34.80;21.87;;;1.40;99.90;;;;;;4995045;28;20163;-67
2023/01/23 07:06:13;;;;;;;38.97;23.90;;;1.40;99.90;;;;;;4994059;28;20208;-66
2023/01/23 07:08:40;;;;;;;47.47;25.33;;;1.40;99.90;;;;;;4995262;28;20180;-66
2023/01/23 07:11:06;;;;;;;38.47;23.73;;;1.40;99.90;;;;;;4994901;28;20200;-66
2023/01/23 07:13:32;;;;;;;38.50;24.17;;;1.40;99.90;;;;;;5009683;28;20267;-66
2023/01/23 07:15:57;;;;;;;42.43;24.97;;;1.40;99.90;;;;;;4994670;28;20184;-66
2023/01/23 07:18:27;;;;;;;39.93;23.37;;;1.30;99.90;;;;;;4994491;28;20715;-66
2023/01/23 07:20:53;;;;;;;38.40;24.63;;;1.40;99.90;;;;;;5009777;28;20279;-66
2023/01/23 07:23:19;;;;;;;43.70;25.13;;;1.40;99.90;;;;;;4994752;28;20187;-66
2023/01/23 07:25:45;;;;;;;43.97;25.40;;;1.40;99.90;;;;;;5009569;28;20200;-66
2023/01/23 07:28:11;;;;;;;42.87;26.67;;;1.40;99.90;;;;;;4994432;28;20583;-66
2023/01/23 07:30:37;;;;;;;46.40;26.37;;;1.40;99.90;;;;;;4994756;28;20247;-66
2023/01/23 07:33:03;;;;;;;40.47;25.63;;;1.40;99.90;;;;;;4994491;28;20630;-66
2023/01/23 07:35:29;;;;;;;38.13;24.47;;;1.40;99.90;;;;;;4993299;28;20243;-66
2023/01/23 07:37:55;;;;;;;47.93;26.20;;;1.40;99.90;;;;;;4994886;28;20184;-66
2023/01/23 07:40:21;;;;;;;47.17;23.93;;;1.40;99.90;;;;;;4995978;28;20171;-66
2023/01/23 07:42:46;;;;;;;45.93;25.70;;;1.40;99.90;;;;;;4994786;28;20251;-66
2023/01/23 07:45:13;;;;;;;42.40;24.43;;;1.40;99.90;;;;;;4994681;28;20299;-66
2023/01/23 07:47:39;;;;;;;40.13;25.70;;;1.50;99.90;;;;;;4993371;28;20645;-66
2023/01/23 07:50:11;;;;;;;41.53;24.83;;;1.40;99.90;;;;;;4994628;28;20177;-66
2023/01/23 07:52:37;;;;;;;45.90;26.23;;;1.40;99.90;;;;;;5009270;28;20300;-66
2023/01/23 07:55:03;;;;;;;39.10;23.87;;;1.50;99.90;;;;;;5009222;28;20196;-66
2023/01/23 07:57:29;;;;;;;42.70;26.07;;;1.50;99.90;;;;;;4994367;28;20173;-66
2023/01/23 07:59:55;;;;;;;47.93;27.00;;;1.50;99.90;;;;;;4992774;28;20188;-66
2023/01/23 08:02:21;;;;;;;47.47;26.30;;;1.50;99.90;;;;;;4994077;28;20217;-66
2023/01/23 08:04:46;;;;;;;46.30;26.67;;;1.50;99.90;;;;;;4994029;28;20672;-66
2023/01/23 08:07:12;;;;;;;44.80;26.07;;;1.50;99.90;;;;;;4992814;28;20212;-66
2023/01/23 08:09:39;;;;;;;44.10;26.53;;;1.50;99.90;;;;;;4994051;28;20263;-66
2023/01/23 08:12:05;;;;;;;44.20;24.43;;;1.50;99.90;;;;;;4994089;28;20542;-66
2023/01/23 08:14:31;;;;;;;43.23;24.27;;;1.50;99.90;;;;;;4994073;28;20200;-66
2023/01/23 08:16:57;;;;;;;41.87;25.13;;;1.50;99.90;;;;;;4994542;28;20640;-66
2023/01/23 08:19:26;;;;;;;39.30;23.90;;;1.50;99.90;;;;;;4998632;28;20523;-66
2023/01/23 08:21:52;;;;;;;40.90;23.73;;;1.50;99.90;;;;;;4996710;28;20192;-66
2023/01/23 08:24:18;;;;;;;38.13;24.07;;;1.50;99.90;;;;;;4998229;28;20625;-67
2023/01/23 08:26:44;;;;;;;39.80;23.53;;;1.50;99.90;;;;;;5012732;28;20211;-66
2023/01/23 08:29:10;;;;;;;38.43;22.77;;;1.60;99.90;;;;;;4997848;28;20537;-66
2023/01/23 08:31:37;;;;;;;41.57;22.77;;;1.60;99.90;;;;;;4997765;28;20661;-66
2023/01/23 08:34:03;;;;;;;39.07;23.00;;;1.60;99.90;;;;;;4998025;28;20204;-66
2023/01/23 08:36:28;;;;;;;35.53;22.50;;;1.60;99.90;;;;;;4997959;28;20638;-66
2023/01/23 08:38:54;;;;;;;40.00;22.57;;;1.60;99.90;;;;;;4997772;28;20306;-66
2023/01/23 08:41:22;;;;;;;40.07;22.90;;;1.60;99.90;;;;;;4997489;28;20176;-66
2023/01/23 08:43:48;;;;;;;33.27;20.90;;;1.60;99.90;;;;;;4997460;28;20172;-66
2023/01/23 08:46:14;;;;;;;39.00;22.73;;;1.60;99.90;;;;;;4997324;28;20299;-66
2023/01/23 08:48:40;;;;;;;36.17;22.87;;;1.60;99.90;;;;;;4997979;28;20252;-66
2023/01/23 08:51:09;;;;;;;37.13;23.50;;;1.60;99.90;;;;;;4997460;28;20226;-66
2023/01/23 08:53:35;;;;;;;33.30;21.17;;;1.70;99.90;;;;;;5012474;28;20239;-66
2023/01/23 08:56:06;;;;;;;36.13;22.97;;;1.70;99.90;;;;;;4997291;28;20172;-66
2023/01/23 08:58:33;;;;;;;32.40;22.37;;;1.70;99.90;;;;;;5012310;28;20184;-66
2023/01/23 09:00:59;;;;;;;38.47;22.90;;;1.80;99.90;;;;;;4998062;28;20682;-66
2023/01/23 09:03:25;;;;;;;38.27;22.53;;;1.80;99.90;;;;;;4997195;28;20187;-66
2023/01/23 09:05:51;;;;;;;36.93;21.07;;;1.80;99.90;;;;;;4997025;28;20279;-66
2023/01/23 09:08:16;;;;;;;33.50;19.77;;;1.80;99.90;;;;;;5012268;28;20191;-66
2023/01/23 09:10:43;;;;;;;32.43;22.23;;;1.80;99.90;;;;;;4997356;28;20160;-66
2023/01/23 09:13:09;;;;;;;37.53;22.87;;;1.90;99.90;;;;;;4996866;28;20183;-66
2023/01/23 09:15:38;;;;;;;34.87;22.43;;;1.90;99.90;;;;;;4996820;28;20200;-66
2023/01/23 09:18:04;;;;;;;35.77;20.60;;;1.90;99.90;;;;;;4996934;28;20591;-66
2023/01/23 09:20:29;;;;;;;33.27;21.57;;;1.90;99.90;;;;;;4997145;28;20676;-66
2023/01/23 09:22:55;;;;;;;33.87;20.63;;;2.00;99.90;;;;;;5011846;28;20185;-66
2023/01/23 09:25:21;;;;;;;31.23;19.53;;;2.00;99.90;;;;;;4996644;28;20200;-66
2023/01/23 09:27:47;;;;;;;31.87;19.20;;;2.00;99.90;;;;;;5011658;28;20200;-66
2023/01/23 09:30:13;;;;;;;33.00;20.47;;;2.10;99.90;;;;;;4994468;28;20172;-67
2023/01/23 09:32:39;;;;;;;31.90;20.73;;;2.10;99.90;;;;;;4997136;28;20231;-66
2023/01/23 09:35:05;;;;;;;29.87;19.50;;;2.10;99.90;;;;;;4996445;28;20228;-66
2023/01/23 09:37:58;;;;;;;30.70;20.43;;;2.20;99.90;;;;;;4996554;28;20217;-66
2023/01/23 09:40:21;;;;;;;31.77;20.43;;;2.20;99.90;;;;;;4996610;28;20184;-66
2023/01/23 09:42:48;;;;;;;36.90;21.33;;;2.30;99.90;;;;;;4996367;28;20172;-66
2023/01/23 09:45:19;;;;;;;30.60;19.47;;;2.30;99.90;;;;;;4996353;28;20243;-66
2023/01/23 09:48:05;;;;;;;27.67;18.70;;;2.20;99.90;;;;;;4996743;28;20324;-66
2023/01/23 09:50:47;;;;;;;30.20;19.87;;;2.20;99.90;;;;;;4996755;28;20244;-66
2023/01/23 09:53:20;;;;;;;30.63;19.70;;;2.30;99.90;;;;;;5011395;28;20184;-66
2023/01/23 09:55:52;;;;;;;31.50;20.10;;;2.30;99.90;;;;;;4996251;28;20196;-66
2023/01/23 09:58:25;;;;;;;28.07;18.63;;;2.30;99.90;;;;;;4996285;28;20157;-66
2023/01/23 10:00:51;;;;;;;30.40;19.43;;;2.30;99.90;;;;;;4994966;28;20180;-66
2023/01/23 10:03:17;;;;;;;27.97;18.60;;;2.30;99.90;;;;;;4994849;28;20181;-66
2023/01/23 10:06:14;;;;;;;30.50;20.00;;;2.30;99.90;;;;;;4996106;28;20196;-66
2023/01/23 10:09:07;;;;;;;30.20;19.43;;;2.30;99.90;;;;;;4994842;28;20226;-66
2023/01/23 10:11:41;;;;;;;31.57;20.20;;;2.30;99.90;;;;;;4995878;28;20200;-66
2023/01/23 10:14:12;;;;;;;30.73;19.97;;;2.30;99.90;;;;;;4994720;28;20196;-66
2023/01/23 10:17:00;;;;;;;31.90;20.97;;;2.20;99.90;;;;;;4991279;28;20185;-66
2023/01/23 10:19:52;;;;;;;28.30;20.47;;;2.20;99.90;;;;;;4975133;28;20680;-66
2023/01/23 10:22:33;;;;;;;29.53;20.63;;;2.20;99.90;;;;;;4975072;28;20173;-66
2023/01/23 10:25:27;;;;;;;29.83;19.27;;;2.20;99.90;;;;;;4974814;28;20205;-66
2023/01/23 10:27:58;;;;;;;28.03;19.70;;;2.20;99.90;;;;;;4971786;28;20221;-65
2023/01/23 10:30:32;;;;;;;32.57;19.63;;;2.20;99.90;;;;;;4976148;28;20329;-64
2023/01/23 10:33:00;;;;;;;29.50;20.67;;;2.20;99.90;;;;;;4976764;28;20150;-64
2023/01/23 10:35:50;;;;;;;30.53;21.13;;;2.20;99.90;;;;;;4976615;28;20221;-64
2023/01/23 10:38:40;;;;;;;34.23;21.87;;;2.30;99.90;;;;;;4976079;28;20158;-65
2023/01/23 10:41:14;;;;;;;34.20;21.37;;;2.30;99.90;;;;;;4976059;28;20165;-65
2023/01/23 10:43:45;;;;;;;35.30;23.30;;;2.30;99.90;;;;;;4975785;28;20158;-65
2023/01/23 10:46:15;;;;;;;30.77;21.23;;;2.30;99.90;;;;;;4987095;28;20212;-67
2023/01/23 10:48:45;;;;;;;34.77;22.13;;;2.40;99.90;;;;;;4995311;28;20303;-66
2023/01/23 10:51:33;;;;;;;32.43;22.30;;;2.50;99.90;;;;;;5010265;28;20657;-66
2023/01/23 10:54:24;;;;;;;34.03;22.47;;;2.60;99.90;;;;;;5010226;28;20196;-66
2023/01/23 10:56:59;;;;;;;29.67;21.10;;;2.70;99.90;;;;;;4993842;28;20176;-66
2023/01/23 10:59:29;;;;;;;34.13;21.30;;;2.80;99.90;;;;;;4995049;28;20180;-66
2023/01/23 11:02:14;;;;;;;34.67;22.10;;;2.90;99.90;;;;;;4995277;28;20164;-66
2023/01/23 11:04:43;;;;;;;32.30;22.33;;;2.80;99.90;;;;;;4995433;28;20207;-66
2023/01/23 11:07:18;;;;;;;30.47;21.63;;;2.80;99.90;;;;;;5010031;28;20216;-66
2023/01/23 11:10:10;;;;;;;34.13;21.60;;;2.80;99.90;;;;;;4995119;28;20225;-66
2023/01/23 11:12:50;;;;;;;29.23;21.20;;;2.80;99.90;;;;;;4985729;28;20235;-66
2023/01/23 11:15:23;;;;;;;31.00;21.33;;;2.80;99.90;;;;;;4994889;28;20188;-66
2023/01/23 11:17:51;;;;;;;30.90;21.73;;;2.80;99.90;;;;;;5010006;28;20172;-66
2023/01/23 11:20:30;;;;;;;33.07;20.30;;;2.80;99.90;;;;;;4995131;28;20169;-66
2023/01/23 11:23:09;;;;;;;30.47;21.70;;;2.80;99.90;;;;;;4993638;28;20316;-66
2023/01/23 11:25:50;;;;;;;31.13;21.43;;;2.80;99.90;;;;;;4993383;28;20200;-66
2023/01/23 11:28:23;;;;;;;29.13;20.43;;;2.90;99.90;;;;;;4994675;28;20219;-66
2023/01/23 11:30:57;;;;;;;30.63;21.70;;;2.90;99.90;;;;;;4994623;28;20153;-66
2023/01/23 11:33:51;;;;;;;29.90;21.43;;;2.90;99.90;;;;;;4994630;28;20153;-66
2023/01/23 11:36:17;;;;;;;31.20;20.17;;;2.80;99.90;;;;;;4994446;28;20157;-66
2023/01/23 11:39:18;;;;;;;28.73;20.23;;;2.80;99.90;;;;;;4994397;28;20552;-66
2023/01/23 11:41:46;;;;;;;29.93;19.63;;;2.80;99.90;;;;;;4980392;28;20215;-66
2023/01/23 11:44:22;;;;;;;27.10;19.07;;;2.80;99.90;;;;;;4994401;28;20196;-66
2023/01/23 11:46:53;;;;;;;29.33;19.57;;;2.80;99.90;;;;;;4993029;28;20211;-66
2023/01/23 11:49:56;;;;;;;25.03;17.93;;;2.80;99.90;;;;;;4994743;28;20177;-66
2023/01/23 11:52:37;;;;;;;24.77;18.20;;;2.80;99.90;;;;;;4993793;28;20529;-66
2023/01/23 11:55:14;;;;;;;28.43;19.90;;;2.70;99.90;;;;;;4994218;28;20553;-66
2023/01/23 11:58:05;;;;;;;28.00;18.73;;;2.80;99.90;;;;;;4994079;28;20164;-66
2023/01/23 12:01:03;;;;;;;28.93;19.63;;;2.70;99.90;;;;;;4994502;28;20197;-66
2023/01/23 12:03:54;;;;;;;26.43;19.37;;;2.70;99.90;;;;;;5009331;28;20634;-66
2023/01/23 12:06:55;;;;;;;26.73;19.83;;;2.70;99.90;;;;;;4994388;28;20667;-66
2023/01/23 12:09:22;;;;;;;26.27;18.60;;;2.70;99.90;;;;;;4994131;28;20168;-66
2023/01/23 12:11:59;;;;;;;26.83;18.63;;;2.80;99.90;;;;;;4993965;28;20202;-66
2023/01/23 12:14:33;;;;;;;25.87;18.53;;;2.80;99.90;;;;;;4994064;28;20192;-66
2023/01/23 12:17:14;;;;;;;23.50;18.30;;;2.70;99.90;;;;;;4994007;28;20184;-66
2023/01/23 12:19:42;;;;;;;26.90;18.93;;;2.70;99.90;;;;;;4994086;28;20169;-66
2023/01/23 12:22:17;;;;;;;26.17;19.53;;;2.70;99.90;;;;;;4992883;28;20584;-66
2023/01/23 12:25:08;;;;;;;26.87;18.80;;;2.70;99.90;;;;;;4993874;28;20202;-66
2023/01/23 12:27:42;;;;;;;27.50;18.87;;;2.70;99.90;;;;;;4993793;28;20192;-66
2023/01/23 12:30:26;;;;;;;32.43;20.67;;;2.70;99.90;;;;;;4993182;28;20263;-66
2023/01/23 12:33:26;;;;;;;25.83;19.23;;;2.70;99.90;;;;;;4992541;28;20665;-66
2023/01/23 12:36:21;;;;;;;29.23;19.40;;;2.70;99.90;;;;;;4993790;28;20205;-66
2023/01/23 12:38:55;;;;;;;24.63;18.83;;;2.70;99.90;;;;;;4994339;28;20153;-66
2023/01/23 12:41:35;;;;;;;33.20;20.60;;;2.70;99.90;;;;;;4993788;28;20172;-66
2023/01/23 12:44:28;;;;;;;28.03;20.47;;;2.80;99.90;;;;;;4993653;28;20188;-68
2023/01/23 12:47:09;;;;;;;28.27;20.07;;;2.80;99.90;;;;;;4992429;28;20773;-66
2023/01/23 12:49:54;;;;;;;27.10;19.10;;;2.80;99.90;;;;;;4993637;28;20641;-66
2023/01/23 12:52:25;;;;;;;29.00;19.07;;;2.80;99.90;;;;;;4994052;28;20161;-66
2023/01/23 12:55:06;;;;;;;31.13;20.50;;;2.80;99.90;;;;;;4993853;28;20193;-66
2023/01/23 12:57:38;;;;;;;29.17;18.97;;;2.80;99.90;;;;;;4993726;28;20165;-66